Time;durP1;ratioP1;P1;durP2;ratioP2;P2;SDS_P1;SDS_P2;PMS_P1;PMS_P2;Temp;Humidity;BMP_temperature;BMP_pressure;BME280_temperature;BME280_humidity;BME280_pressure;Samples;Min_cycle;Max_cycle;Signal;HPM_P1;HPM_P2
2023/01/16 00:00:00;;;;;;;3.75;1.67;;;;;;;5.15;85.58;99536.13;4864180;29;20049;-71
2023/01/16 00:02:32;;;;;;;3.25;0.70;;;;;;;5.10;85.86;99533.66;4870351;29;20045;-72
2023/01/16 00:05:00;;;;;;;2.15;0.63;;;;;;;5.05;85.87;99539.00;4870264;29;20050;-72
2023/01/16 00:07:27;;;;;;;1.98;0.80;;;;;;;5.03;85.71;99534.75;4857095;29;20221;-72
2023/01/16 00:09:54;;;;;;;1.13;0.60;;;;;;;4.98;85.90;99535.72;4871922;29;20046;-73
2023/01/16 00:12:21;;;;;;;1.60;0.73;;;;;;;4.96;85.77;99531.44;4865917;29;20082;-74
2023/01/16 00:14:48;;;;;;;2.20;0.63;;;;;;;4.91;86.02;99520.25;4873011;29;20050;-73
2023/01/16 00:17:15;;;;;;;1.92;0.75;;;;;;;4.86;86.26;99522.16;4871461;29;20068;-73
2023/01/16 00:19:42;;;;;;;1.92;0.60;;;;;;;4.81;86.82;99517.91;4870224;29;20046;-73
2023/01/16 00:22:09;;;;;;;1.05;0.70;;;;;;;4.80;86.87;99500.50;4871499;29;20051;-74
2023/01/16 00:24:36;;;;;;;2.35;0.70;;;;;;;4.78;87.08;99510.13;4873516;29;20052;-75
2023/01/16 00:27:03;;;;;;;3.53;0.90;;;;;;;4.76;87.44;99504.13;4867325;29;20621;-74
2023/01/16 00:29:30;;;;;;;2.45;0.90;;;;;;;4.74;87.60;99494.59;4864500;29;20045;-73
2023/01/16 00:31:57;;;;;;;2.40;0.77;;;;;;;4.72;88.00;99499.03;4865402;29;20053;-72
2023/01/16 00:34:25;;;;;;;3.13;1.17;;;;;;;4.72;88.43;99496.44;4868941;29;20060;-72
2023/01/16 00:36:52;;;;;;;3.17;0.95;;;;;;;4.74;88.39;99490.25;4856456;29;20165;-72
2023/01/16 00:39:19;;;;;;;2.03;0.90;;;;;;;4.76;88.68;99484.97;4867731;29;20053;-72
2023/01/16 00:41:46;;;;;;;3.70;0.90;;;;;;;4.78;88.61;99477.97;4864667;29;20049;-72
2023/01/16 00:44:13;;;;;;;3.58;1.05;;;;;;;4.76;88.70;99483.25;4861642;29;20041;-72
2023/01/16 00:46:40;;;;;;;3.53;0.98;;;;;;;4.75;88.87;99476.31;4871526;29;20101;-72
2023/01/16 00:49:07;;;;;;;2.17;1.30;;;;;;;4.77;88.68;99473.63;4871063;29;20536;-74
2023/01/16 00:51:34;;;;;;;7.97;3.92;;;;;;;4.75;88.67;99473.69;4870573;29;20481;-73
2023/01/16 00:54:02;;;;;;;5.75;1.40;;;;;;;4.75;88.47;99465.00;4872025;29;20045;-73
2023/01/16 00:56:29;;;;;;;6.30;1.67;;;;;;;4.75;88.42;99465.00;4860702;29;20121;-71
2023/01/16 00:58:56;;;;;;;4.35;1.40;;;;;;;4.74;88.36;99463.28;4863207;29;20206;-73
2023/01/16 01:01:23;;;;;;;4.30;1.15;;;;;;;4.72;88.44;99455.50;4871278;29;20042;-72
2023/01/16 01:03:50;;;;;;;5.05;1.17;;;;;;;4.71;88.38;99455.53;4873058;29;20041;-73
2023/01/16 01:06:17;;;;;;;5.40;1.00;;;;;;;4.69;88.34;99449.50;4873578;29;20050;-73
2023/01/16 01:08:44;;;;;;;4.35;1.40;;;;;;;4.66;88.41;99442.63;4875681;29;20073;-73
2023/01/16 01:11:14;;;;;;;4.97;1.35;;;;;;;4.65;88.04;99444.38;4871375;29;20046;-72
2023/01/16 01:13:42;;;;;;;6.25;2.00;;;;;;;4.64;88.37;99444.41;4873600;29;20539;-72
2023/01/16 01:16:11;;;;;;;5.03;2.33;;;;;;;4.62;88.35;99435.75;4871437;29;20420;-72
2023/01/16 01:18:38;;;;;;;3.42;1.48;;;;;;;4.59;88.25;99438.44;4866519;29;20062;-74
2023/01/16 01:21:06;;;;;;;3.20;1.20;;;;;;;4.53;88.08;99433.41;4868361;29;20060;-75
2023/01/16 01:23:33;;;;;;;3.90;1.40;;;;;;;4.44;87.89;99430.16;4865762;29;20069;-73
2023/01/16 01:26:14;;;;;;;4.28;1.30;;;;;;;4.36;87.94;99426.91;4866555;29;20060;-75
2023/01/16 01:28:42;;;;;;;3.88;1.35;;;;;;;4.27;88.31;99430.63;4875783;29;20053;-74
2023/01/16 01:31:12;;;;;;;5.22;1.15;;;;;;;4.25;88.36;99423.75;4886970;29;20054;-74
2023/01/16 01:33:40;;;;;;;3.53;1.20;;;;;;;4.20;88.55;99421.25;4873345;29;20057;-74
2023/01/16 01:36:08;;;;;;;6.07;1.00;;;;;;;4.14;88.42;99413.56;4866147;29;20053;-74
2023/01/16 01:38:35;;;;;;;6.70;1.27;;;;;;;4.06;88.49;99405.97;4871184;29;20052;-73
2023/01/16 01:41:02;;;;;;;4.78;1.15;;;;;;;3.98;88.52;99407.91;4873082;29;20113;-74
2023/01/16 01:43:48;;;;;;;5.13;1.38;;;;;;;3.89;88.54;99396.81;4858443;29;20042;-73
2023/01/16 01:46:45;;;;;;;6.68;1.48;;;;;;;3.79;88.66;99394.50;4869978;29;20144;-73
2023/01/16 01:49:29;;;;;;;6.03;1.38;;;;;;;3.71;88.93;99390.31;4860318;29;20057;-72
2023/01/16 01:52:02;;;;;;;5.05;1.35;;;;;;;3.65;89.14;99384.44;4863847;29;20046;-72
2023/01/16 01:54:40;;;;;;;8.40;1.75;;;;;;;3.60;89.17;99374.13;4866689;29;20046;-72
2023/01/16 01:57:42;;;;;;;6.88;1.40;;;;;;;3.55;89.00;99363.81;4873422;29;20430;-72
2023/01/16 02:00:21;;;;;;;6.15;1.50;;;;;;;3.47;89.46;99357.91;4869501;29;20908;-73
2023/01/16 02:03:00;;;;;;;9.40;2.00;;;;;;;3.44;89.44;99351.94;4863881;29;20045;-73
2023/01/16 02:05:37;;;;;;;3.90;1.58;;;;;;;3.36;89.50;99346.91;4869987;29;20048;-74
2023/01/16 02:08:06;;;;;;;10.43;1.75;;;;;;;3.30;89.59;99341.84;4865028;29;20054;-74
2023/01/16 02:10:43;;;;;;;10.65;1.75;;;;;;;3.23;89.50;99341.13;4871871;29;20049;-71
2023/01/16 02:13:10;;;;;;;5.13;1.40;;;;;;;3.17;89.93;99330.88;4870577;29;20042;-75
2023/01/16 02:19:15;;;;;;;7.32;1.70;;;;;;;3.14;90.01;99325.75;4860989;29;20105;-75
2023/01/16 02:21:52;;;;;;;10.40;1.85;;;;;;;3.05;90.19;99316.41;4868801;29;20459;-74
2023/01/16 02:24:55;;;;;;;6.22;1.48;;;;;;;3.01;90.46;99309.56;4872842;29;20049;-74
2023/01/16 02:27:59;;;;;;;8.00;1.67;;;;;;;2.95;90.51;99300.16;4869423;29;20111;-73
2023/01/16 02:30:32;;;;;;;8.85;1.55;;;;;;;2.91;90.70;99296.75;4873541;29;20046;-73
2023/01/16 02:33:40;;;;;;;7.88;1.60;;;;;;;2.89;90.74;99295.09;4873554;29;20060;-73
2023/01/16 02:36:21;;;;;;;5.70;1.45;;;;;;;2.86;90.77;99287.34;4865672;29;20140;-77
2023/01/16 02:39:15;;;;;;;3.95;1.42;;;;;;;2.84;91.03;99281.31;4863501;29;20116;-77
2023/01/16 02:42:07;;;;;;;7.45;1.38;;;;;;;2.82;90.95;99277.88;4866084;29;20042;-77
2023/01/16 02:44:59;;;;;;;6.10;1.50;;;;;;;2.78;91.16;99272.78;4869369;29;20056;-77
2023/01/16 02:47:45;;;;;;;6.00;1.40;;;;;;;2.79;91.47;99261.47;4865779;29;20053;-77
2023/01/16 02:50:30;;;;;;;6.60;1.42;;;;;;;2.77;91.24;99258.03;4869534;29;20041;-76
2023/01/16 02:53:36;;;;;;;7.82;1.58;;;;;;;2.76;91.32;99253.72;4864793;29;20049;-77
2023/01/16 02:56:09;;;;;;;5.25;1.27;;;;;;;2.73;91.41;99245.16;4851547;29;20585;-77
2023/01/16 02:58:47;;;;;;;6.82;1.40;;;;;;;2.73;91.45;99245.16;4869579;29;20056;-78
2023/01/16 03:01:18;;;;;;;5.85;1.50;;;;;;;2.71;91.42;99234.75;4864416;29;20046;-78
2023/01/16 03:03:54;;;;;;;5.97;1.20;;;;;;;2.69;91.54;99223.53;4866329;29;20224;-78
2023/01/16 03:06:55;;;;;;;5.72;1.52;;;;;;;2.68;91.93;99219.22;4873511;29;20065;-78
2023/01/16 03:09:57;;;;;;;8.50;1.58;;;;;;;2.67;91.95;99214.03;4871799;29;20451;-78
2023/01/16 03:13:11;;;;;;;5.93;1.48;;;;;;;2.63;92.07;99208.94;4871992;29;20054;-78
2023/01/16 03:16:00;;;;;;;5.45;1.67;;;;;;;2.59;92.32;99201.25;4858364;29;20046;-77
2023/01/16 03:18:52;;;;;;;7.53;1.75;;;;;;;2.57;92.38;99187.41;4870554;29;20141;-72
2023/01/16 03:22:09;;;;;;;9.30;1.80;;;;;;;2.55;92.40;99182.22;4871857;29;20106;-73
2023/01/16 03:25:04;;;;;;;5.93;1.40;;;;;;;2.53;92.56;99172.75;4831638;29;20065;-72
2023/01/16 03:27:43;;;;;;;5.68;1.40;;;;;;;2.53;92.67;99170.16;4870071;29;20133;-72
2023/01/16 03:30:48;;;;;;;6.40;1.70;;;;;;;2.51;92.68;99159.78;4872146;29;20140;-72
2023/01/16 03:33:43;;;;;;;;;;;;;;;2.45;92.69;99155.59;4866018;29;20154;-73
2023/01/16 03:36:30;;;;;;;9.25;2.00;;;;;;;2.44;92.90;99145.22;4864698;29;19928;-75
2023/01/16 03:39:00;;;;;;;8.50;1.70;;;;;;;2.43;93.16;99148.72;4864415;29;20052;-75
2023/01/16 03:41:30;;;;;;;6.72;1.52;;;;;;;2.43;93.25;99141.75;4867541;29;20503;-74
2023/01/16 03:44:09;;;;;;;9.93;2.08;;;;;;;2.46;93.58;99128.69;4872530;29;20051;-73
2023/01/16 03:46:47;;;;;;;5.75;1.73;;;;;;;2.52;93.70;99117.28;4868375;29;20061;-73
2023/01/16 03:49:21;;;;;;;6.55;1.77;;;;;;;2.55;93.74;99111.13;4869151;29;20046;-72
2023/01/16 03:51:58;;;;;;;10.45;1.70;;;;;;;2.56;93.87;99108.47;4872258;29;20088;-73
2023/01/16 03:54:58;;;;;;;6.28;1.55;;;;;;;2.57;93.65;99104.16;4863546;29;20065;-73
2023/01/16 03:57:35;;;;;;;5.88;1.80;;;;;;;2.59;94.10;99097.16;4851893;29;20065;-74
2023/01/16 04:00:05;;;;;;;9.23;3.00;;;;;;;2.62;94.03;99081.47;4870771;29;20045;-74
2023/01/16 04:03:18;;;;;;;7.72;3.25;;;;;;;2.62;94.15;99078.84;4873819;29;20137;-75
2023/01/16 04:06:18;;;;;;;9.82;3.38;;;;;;;2.66;94.21;99071.81;4872700;29;20049;-75
2023/01/16 04:08:47;;;;;;;7.65;3.10;;;;;;;2.66;94.32;99066.63;4864847;29;20052;-74
2023/01/16 04:11:19;;;;;;;10.95;3.17;;;;;;;2.66;94.30;99054.47;4865452;29;20046;-74
2023/01/16 04:13:53;;;;;;;10.00;3.08;;;;;;;2.66;94.33;99040.59;4867497;29;20109;-74
2023/01/16 04:16:22;;;;;;;7.45;2.05;;;;;;;2.67;94.64;99027.56;4872113;29;20049;-74
2023/01/16 04:18:55;;;;;;;9.43;1.85;;;;;;;2.68;94.73;99026.66;4872816;29;20053;-75
2023/01/16 04:21:27;;;;;;;11.48;1.85;;;;;;;2.73;94.92;99018.75;4863392;29;20557;-75
2023/01/16 04:23:57;;;;;;;8.00;1.42;;;;;;;2.73;94.91;99006.56;4863777;29;20042;-74
2023/01/16 04:26:25;;;;;;;5.95;1.40;;;;;;;2.77;95.14;99004.72;4874312;29;20880;-74
2023/01/16 04:28:54;;;;;;;6.18;1.30;;;;;;;2.78;95.08;98983.88;4871419;29;20042;-74
2023/01/16 04:31:27;;;;;;;9.50;1.55;;;;;;;2.80;95.02;98973.41;4870040;29;20048;-75
2023/01/16 04:33:54;;;;;;;7.82;1.45;;;;;;;2.80;95.19;98961.25;4866157;29;20075;-75
2023/01/16 04:36:22;;;;;;;7.65;1.30;;;;;;;2.82;95.08;98950.81;4870644;29;20062;-73
2023/01/16 04:38:49;;;;;;;5.57;1.45;;;;;;;2.82;95.00;98949.94;4870292;29;20049;-73
2023/01/16 04:41:35;;;;;;;4.60;1.48;;;;;;;2.79;94.89;98941.34;4875871;29;20044;-73
2023/01/16 04:44:09;;;;;;;7.53;1.40;;;;;;;2.84;94.78;98942.94;4865806;29;20507;-72
2023/01/16 04:46:39;;;;;;;4.37;1.40;;;;;;;2.82;95.03;98939.53;4860258;29;20049;-73
2023/01/16 04:49:06;;;;;;;5.55;1.50;;;;;;;2.83;94.89;98930.84;4865613;29;20049;-73
2023/01/16 04:51:35;;;;;;;5.30;1.10;;;;;;;2.83;94.96;98916.09;4868676;29;20048;-73
2023/01/16 04:54:05;;;;;;;4.70;1.30;;;;;;;2.83;95.03;98905.69;4871491;29;20057;-73
2023/01/16 04:56:33;;;;;;;5.47;1.20;;;;;;;2.82;94.87;98898.75;4864322;29;20046;-74
2023/01/16 04:59:00;;;;;;;4.60;1.40;;;;;;;2.81;94.88;98894.44;4867957;29;20130;-74
2023/01/16 05:01:34;;;;;;;4.43;1.35;;;;;;;2.80;94.90;98883.16;4876724;29;20511;-74
2023/01/16 05:04:04;;;;;;;6.22;1.52;;;;;;;2.82;95.00;98883.16;4874138;29;20049;-74
2023/01/16 05:06:33;;;;;;;3.60;1.25;;;;;;;2.82;94.89;98871.88;4869753;29;20045;-74
2023/01/16 05:09:01;;;;;;;4.68;1.40;;;;;;;2.85;94.84;98864.81;4876908;29;20048;-74
2023/01/16 05:11:29;;;;;;;6.75;1.15;;;;;;;2.89;94.97;98861.22;4869243;29;20518;-74
2023/01/16 05:13:57;;;;;;;5.20;1.17;;;;;;;2.95;95.14;98847.19;4869302;29;20483;-73
2023/01/16 05:16:24;;;;;;;6.28;1.17;;;;;;;3.00;95.05;98844.44;4876842;29;20038;-74
2023/01/16 05:18:51;;;;;;;6.13;1.13;;;;;;;3.04;94.81;98844.28;4878338;29;20093;-73
2023/01/16 05:21:18;;;;;;;6.75;1.20;;;;;;;3.06;94.74;98821.66;4875616;29;20050;-73
2023/01/16 05:23:45;;;;;;;3.03;1.00;;;;;;;3.08;94.61;98819.00;4873309;29;20090;-72
2023/01/16 05:26:12;;;;;;;5.80;1.20;;;;;;;3.11;94.28;98811.94;4867905;29;20481;-73
2023/01/16 05:28:39;;;;;;;4.20;1.20;;;;;;;3.14;94.24;98791.91;4876318;29;20045;-73
2023/01/16 05:31:06;;;;;;;5.55;1.30;;;;;;;3.16;94.01;98795.31;4876319;29;20045;-74
2023/01/16 05:33:34;;;;;;;5.35;1.20;;;;;;;3.19;93.71;98769.19;4870958;29;20495;-73
2023/01/16 05:36:01;;;;;;;6.30;0.90;;;;;;;3.22;93.61;98777.75;4874538;29;20041;-74
2023/01/16 05:38:28;;;;;;;4.60;0.95;;;;;;;3.26;93.63;98768.06;4871169;29;20102;-74
2023/01/16 05:40:55;;;;;;;2.92;0.80;;;;;;;3.42;94.78;98760.59;4865171;29;20514;-75
2023/01/16 05:43:24;;;;;;;5.20;0.98;;;;;;;3.62;94.33;98752.06;4869185;29;20190;-75
2023/01/16 05:45:51;;;;;;;5.65;1.23;;;;;;;3.80;94.08;98745.38;4861034;29;20468;-76
2023/01/16 05:48:19;;;;;;;5.93;1.25;;;;;;;3.95;93.37;98741.34;4865226;29;20507;-75
2023/01/16 05:50:46;;;;;;;3.60;0.90;;;;;;;3.99;91.83;98740.34;4859966;29;20165;-75
2023/01/16 05:53:13;;;;;;;6.18;1.05;;;;;;;4.10;93.52;98729.50;4862047;29;20052;-75
2023/01/16 05:55:46;;;;;;;3.45;1.00;;;;;;;4.34;93.42;98717.28;4873535;29;20049;-75
2023/01/16 05:58:16;;;;;;;5.65;0.90;;;;;;;4.49;90.92;98715.00;4864364;29;20198;-76
2023/01/16 06:00:43;;;;;;;3.95;1.10;;;;;;;4.58;89.88;98701.56;4889235;29;20049;-74
2023/01/16 06:03:11;;;;;;;4.80;1.00;;;;;;;4.66;89.49;98690.84;4873126;29;20046;-75
2023/01/16 06:05:37;;;;;;;1.92;0.63;;;;;;;4.70;88.14;98681.94;4867385;29;20073;-76
2023/01/16 06:08:05;;;;;;;4.10;0.90;;;;;;;4.69;88.17;98668.97;4865975;29;20114;-77
2023/01/16 06:10:32;;;;;;;3.20;0.90;;;;;;;4.71;88.32;98659.31;4874584;29;20060;-75
2023/01/16 06:13:03;;;;;;;4.03;0.63;;;;;;;4.71;87.65;98654.94;4866255;29;20048;-76
2023/01/16 06:15:30;;;;;;;2.83;0.80;;;;;;;4.70;88.07;98641.97;4877680;29;20522;-75
2023/01/16 06:17:57;;;;;;;1.92;0.80;;;;;;;4.73;87.77;98632.25;4860831;29;20054;-75
2023/01/16 06:20:24;;;;;;;3.33;1.00;;;;;;;4.72;87.03;98622.72;4861134;29;20049;-75
2023/01/16 06:22:51;;;;;;;2.35;0.77;;;;;;;4.70;87.26;98613.25;4869658;29;20094;-74
2023/01/16 06:25:19;;;;;;;3.55;0.80;;;;;;;4.55;86.58;98597.31;4872636;29;20037;-73
2023/01/16 06:27:50;;;;;;;1.63;0.70;;;;;;;4.40;86.56;98605.78;4863298;29;20054;-73
2023/01/16 06:30:22;;;;;;;4.00;0.70;;;;;;;4.22;87.38;98595.19;4863563;29;20571;-74
2023/01/16 06:32:50;;;;;;;3.97;1.10;;;;;;;4.12;87.87;98597.28;4861975;29;20042;-74
2023/01/16 06:35:18;;;;;;;2.67;0.75;;;;;;;4.07;88.34;98593.16;4859914;29;20579;-75
2023/01/16 06:37:45;;;;;;;3.83;0.80;;;;;;;4.02;88.83;98593.34;4860432;29;20064;-75
2023/01/16 06:40:12;;;;;;;3.30;0.88;;;;;;;4.00;88.94;98587.34;4864749;29;20831;-75
2023/01/16 06:42:39;;;;;;;3.58;1.05;;;;;;;3.97;89.34;98583.09;4862473;29;20057;-74
2023/01/16 06:45:07;;;;;;;2.97;0.80;;;;;;;3.99;89.42;98589.13;4864309;29;20829;-75
2023/01/16 06:47:34;;;;;;;5.10;1.10;;;;;;;4.00;89.49;98583.00;4858336;29;20050;-74
2023/01/16 06:50:01;;;;;;;3.17;0.95;;;;;;;3.99;89.77;98583.91;4864574;29;20107;-75
2023/01/16 06:52:28;;;;;;;3.63;1.10;;;;;;;3.98;90.13;98582.19;4870418;29;20055;-75
2023/01/16 06:54:56;;;;;;;3.80;1.00;;;;;;;3.98;90.44;98574.38;4864624;29;20941;-75
2023/01/16 06:57:23;;;;;;;5.57;1.20;;;;;;;3.96;90.92;98575.34;4867531;29;20049;-76
2023/01/16 06:59:50;;;;;;;5.78;1.30;;;;;;;3.92;91.22;98563.34;4864022;29;20045;-76
2023/01/16 07:02:17;;;;;;;5.15;1.40;;;;;;;3.88;91.63;98553.03;4874504;29;20049;-75
2023/01/16 07:04:44;;;;;;;3.08;1.10;;;;;;;3.89;92.28;98543.47;4864542;29;20487;-76
2023/01/16 07:07:11;;;;;;;3.28;1.27;;;;;;;3.85;92.66;98536.66;4866384;29;20049;-76
2023/01/16 07:09:38;;;;;;;3.30;1.30;;;;;;;3.84;93.13;98525.41;4864059;29;20050;-76
2023/01/16 07:12:06;;;;;;;4.10;0.95;;;;;;;3.78;93.48;98512.59;4871037;29;20057;-75
2023/01/16 07:22:51;;;;;;;3.55;1.40;;;;;;;3.77;94.68;98477.00;4871602;29;20800;-72
2023/01/16 07:25:29;;;;;;;3.38;1.33;;;;;;;3.78;95.02;98465.69;4869605;29;20068;-74
2023/01/16 07:27:56;;;;;;;4.60;1.27;;;;;;;3.77;95.28;98452.72;4867863;29;20049;-75
2023/01/16 07:30:24;;;;;;;5.93;1.20;;;;;;;3.78;95.49;98444.00;4871472;29;20133;-76
2023/01/16 07:32:51;;;;;;;4.30;1.13;;;;;;;3.74;95.90;98432.84;4867253;29;20911;-76
2023/01/16 07:35:18;;;;;;;3.80;1.20;;;;;;;3.75;96.11;98410.22;4871812;29;20101;-75
2023/01/16 07:37:45;;;;;;;3.40;1.00;;;;;;;3.76;96.17;98401.50;4871005;29;20041;-76
2023/01/16 07:40:13;;;;;;;2.58;0.95;;;;;;;3.76;96.34;98391.94;4871950;29;20093;-75
2023/01/16 07:42:40;;;;;;;6.03;1.00;;;;;;;3.75;96.48;98384.16;4870467;29;20069;-75
2023/01/16 07:45:08;;;;;;;4.80;1.13;;;;;;;3.75;96.58;98377.22;4864978;29;20113;-76
2023/01/16 07:47:35;;;;;;;3.60;1.00;;;;;;;3.77;96.65;98379.75;4858831;29;20483;-75
2023/01/16 07:50:02;;;;;;;1.67;0.77;;;;;;;3.74;96.94;98354.66;4864950;29;20507;-74
2023/01/16 07:52:30;;;;;;;4.97;0.85;;;;;;;3.77;97.02;98353.69;4867078;29;20110;-76
2023/01/16 07:54:57;;;;;;;3.97;0.95;;;;;;;3.81;96.88;98350.03;4859400;29;20050;-74
2023/01/16 07:57:26;;;;;;;3.25;0.90;;;;;;;3.82;96.80;98349.09;4857972;29;20049;-75
2023/01/16 07:59:55;;;;;;;4.35;1.00;;;;;;;3.83;96.93;98342.97;4859826;29;20050;-76
2023/01/16 08:02:22;;;;;;;2.95;1.00;;;;;;;3.84;97.11;98322.09;4868733;29;20049;-76
2023/01/16 08:04:49;;;;;;;2.50;1.00;;;;;;;3.85;96.98;98315.97;4854553;29;20057;-75
2023/01/16 08:07:16;;;;;;;5.18;1.20;;;;;;;3.87;97.04;98308.06;4865202;29;20068;-75
2023/01/16 08:09:43;;;;;;;4.40;1.20;;;;;;;3.88;96.95;98308.00;4869015;29;20041;-75
2023/01/16 08:12:10;;;;;;;6.53;1.63;;;;;;;3.90;96.93;98294.91;4869607;29;20050;-75
2023/01/16 08:14:38;;;;;;;4.57;1.30;;;;;;;3.91;97.20;98304.44;4860917;29;20447;-75
2023/01/16 08:17:05;;;;;;;2.95;0.90;;;;;;;3.95;96.90;98295.53;4880755;29;20068;-73
2023/01/16 08:19:33;;;;;;;3.58;1.27;;;;;;;3.94;97.06;98283.41;4883309;29;20057;-72
2023/01/16 08:22:00;;;;;;;5.32;1.35;;;;;;;3.96;96.83;98284.19;4871854;29;20042;-73
2023/01/16 08:24:27;;;;;;;5.88;1.25;;;;;;;3.99;97.05;98275.38;4860379;29;20050;-73
2023/01/16 08:26:56;;;;;;;5.63;1.17;;;;;;;4.00;96.87;98257.09;4859394;29;20145;-73
2023/01/16 08:29:24;;;;;;;3.22;1.38;;;;;;;4.03;96.80;98258.72;4867531;29;20054;-73
2023/01/16 08:31:51;;;;;;;4.30;1.10;;;;;;;4.04;96.90;98256.03;4869560;29;20523;-73
2023/01/16 08:34:19;;;;;;;3.90;0.90;;;;;;;4.07;96.61;98246.38;4855984;29;20033;-71
2023/01/16 08:36:46;;;;;;;2.80;1.20;;;;;;;4.08;96.71;98242.84;4871973;29;20041;-71
2023/01/16 08:39:13;;;;;;;2.92;1.30;;;;;;;4.09;96.79;98240.16;4870984;29;20053;-71
2023/01/16 08:53:02;;;;;;;7.45;1.58;;;;;;;4.17;96.42;98198.09;4872569;29;20124;-71
2023/01/16 08:55:30;;;;;;;5.68;1.80;;;;;;;4.17;96.65;98195.50;4872848;29;20068;-71
2023/01/16 08:57:58;;;;;;;3.00;1.38;;;;;;;4.19;96.55;98189.28;4872771;29;20046;-71
2023/01/16 09:00:27;;;;;;;3.03;1.15;;;;;;;4.22;96.04;98185.72;4861090;29;20050;-71
2023/01/16 09:02:58;;;;;;;6.50;1.70;;;;;;;4.20;96.02;98177.94;4868326;29;20050;-71
2023/01/16 09:05:27;;;;;;;5.45;1.95;;;;;;;4.24;96.27;98167.38;4853969;29;20050;-71
2023/01/16 09:07:54;;;;;;;5.72;1.52;;;;;;;4.24;96.22;98181.25;4853533;29;20060;-71
2023/01/16 09:10:21;;;;;;;5.40;1.50;;;;;;;4.24;96.36;98169.97;4859583;29;20050;-72
2023/01/16 09:15:34;;;;;;;3.25;1.17;;;;;;;4.26;96.22;98160.31;4870627;29;20053;-73
2023/01/16 09:18:01;;;;;;;4.82;1.45;;;;;;;4.26;96.30;98160.31;4856802;29;20046;-73
2023/01/16 09:20:28;;;;;;;3.45;1.55;;;;;;;4.25;96.40;98162.06;4854605;29;20052;-72
2023/01/16 09:23:01;;;;;;;3.90;1.75;;;;;;;4.26;96.66;98150.72;4863071;29;20042;-73
2023/01/16 09:25:29;;;;;;;4.70;1.52;;;;;;;4.27;96.39;98152.41;4859824;29;20049;-73
2023/01/16 09:27:57;;;;;;;5.03;2.35;;;;;;;4.25;96.64;98156.84;4857122;29;20042;-74
2023/01/16 09:30:27;;;;;;;34.75;23.85;;;;;;;4.25;96.64;98156.84;4861624;29;20137;-73
2023/01/16 09:32:54;;;;;;;18.67;14.50;;;;;;;4.26;96.77;98145.50;4857125;29;20052;-74
2023/01/16 09:35:21;;;;;;;9.35;6.68;;;;;;;4.26;96.95;98140.28;4857851;29;20141;-73
2023/01/16 09:37:48;;;;;;;3.72;2.25;;;;;;;4.30;97.09;98143.59;4856804;29;20060;-73
2023/01/16 09:40:22;;;;;;;3.50;2.10;;;;;;;4.32;97.02;98132.16;4866949;29;20045;-73
2023/01/16 09:46:23;;;;;;;11.90;7.70;;;;;;;4.30;96.81;98134.03;4860005;29;20081;-74
2023/01/16 09:49:07;;;;;;;36.20;21.80;;;;;;;4.29;96.62;98141.91;4856802;29;20544;-72
2023/01/16 09:58:34;;;;;;;15.80;9.82;;;;;;;4.28;96.87;98128.03;4857276;29;20054;-73
2023/01/16 10:00:19;;;;;;;31.15;24.45;;;;;;;4.26;96.38;98124.66;4874505;29;20066;-73
2023/01/16 10:02:46;;;;;;;6.55;5.07;;;;;;;4.27;96.67;98126.34;4862810;29;20112;-74
2023/01/16 10:05:15;;;;;;;18.85;12.95;;;;;;;4.30;96.63;98117.50;4866926;29;20105;-74
2023/01/16 10:08:18;;;;;;;9.13;6.05;;;;;;;4.32;96.58;98110.47;4874845;29;20074;-73
2023/01/16 10:11:09;;;;;;;16.83;12.20;;;;;;;4.33;96.50;98097.34;4864730;29;20046;-74
2023/01/16 10:14:05;;;;;;;22.60;15.63;;;;;;;4.37;96.40;98082.41;4856667;29;20053;-73
2023/01/16 10:16:45;;;;;;;17.63;10.30;;;;;;;4.40;96.16;98084.03;4856229;29;20050;-73
2023/01/16 10:19:56;;;;;;;15.23;8.48;;;;;;;4.41;95.86;98072.66;4868344;29;20045;-73
2023/01/16 10:22:51;;;;;;;39.10;24.80;;;;;;;4.45;95.64;98063.75;4871497;29;20048;-72
2023/01/16 10:25:31;;;;;;;4.32;2.03;;;;;;;4.48;95.46;98061.00;4860145;29;20148;-73
2023/01/16 10:28:27;;;;;;;104.40;51.20;;;;;;;4.51;95.58;98051.25;4871053;29;20118;-72
2023/01/16 10:31:11;;;;;;;104.40;50.60;;;;;;;4.58;95.49;98046.56;4870548;29;20516;-73
2023/01/16 10:33:59;;;;;;;66.30;43.70;;;;;;;4.65;95.37;98049.72;4862538;29;20045;-73
2023/01/16 10:36:38;;;;;;;11.68;9.60;;;;;;;4.70;95.12;98049.47;4874209;29;20053;-73
2023/01/16 10:39:05;;;;;;;9.35;8.40;;;;;;;4.73;94.72;98042.34;4872983;29;20057;-74
2023/01/16 10:50:20;;;;;;;2.85;2.63;;;;;;;4.75;93.57;98019.63;4872888;29;20144;-74
2023/01/16 10:53:04;;;;;;;;;;;;;;;4.73;93.38;98011.00;4874160;29;20416;-74
2023/01/16 10:55:37;;;;;;;3.58;2.47;;;;;;;4.76;93.25;98010.00;4873640;29;19961;-74
2023/01/16 10:58:36;;;;;;;2.33;1.10;;;;;;;4.84;93.06;98010.44;4873968;29;20132;-74
2023/01/16 11:01:13;;;;;;;1.77;1.00;;;;;;;4.93;92.67;97999.56;4874376;29;20060;-73
2023/01/16 11:04:05;;;;;;;1.90;1.30;;;;;;;5.00;92.55;97992.22;4873726;29;20053;-73
2023/01/16 11:06:33;;;;;;;2.75;2.20;;;;;;;5.04;92.34;97990.28;4874274;29;20055;-73
2023/01/16 11:09:03;;;;;;;2.88;1.42;;;;;;;5.06;92.43;97976.25;4866002;29;20053;-74
2023/01/16 11:20:25;;;;;;;3.28;1.20;;;;;;;5.36;90.67;97945.91;4867913;29;20102;-73
2023/01/16 11:23:03;;;;;;;3.17;1.40;;;;;;;5.35;90.61;97946.81;4866716;29;20757;-72
2023/01/16 11:25:32;;;;;;;4.55;1.50;;;;;;;5.31;90.91;97937.50;4861016;29;20049;-73
2023/01/16 11:28:08;;;;;;;2.53;1.60;;;;;;;5.32;90.63;97926.13;4855856;29;20046;-72
2023/01/16 11:30:44;;;;;;;2.75;1.20;;;;;;;5.38;90.85;97925.78;4855840;29;20113;-73
2023/01/16 11:33:40;;;;;;;2.70;1.40;;;;;;;5.37;90.80;97916.25;4872635;29;20053;-73
2023/01/16 11:36:08;;;;;;;1.75;0.60;;;;;;;5.32;90.35;97908.66;4874343;29;20049;-73
2023/01/16 11:38:42;;;;;;;1.90;0.90;;;;;;;5.31;90.40;97898.31;4873085;29;20058;-73
2023/01/16 11:41:10;;;;;;;2.42;0.85;;;;;;;5.34;90.99;97898.16;4856486;29;20068;-73
2023/01/16 11:46:41;;;;;;;2.20;0.90;;;;;;;5.67;90.03;97886.69;4869064;29;20117;-72
2023/01/16 11:49:17;;;;;;;;;;;;;;;5.83;89.76;97877.06;4872173;29;20239;-72
2023/01/16 11:51:52;;;;;;;3.78;1.10;;;;;;;5.95;88.94;97875.47;4872448;29;19934;-72
2023/01/16 11:54:28;;;;;;;1.13;0.57;;;;;;;6.04;88.87;97863.69;4871636;29;20106;-72
2023/01/16 11:57:08;;;;;;;1.05;0.57;;;;;;;6.07;87.75;97866.09;4871743;29;20045;-72
2023/01/16 11:59:58;;;;;;;3.08;1.08;;;;;;;6.07;87.99;97858.25;4869851;29;20051;-72
2023/01/16 12:03:08;;;;;;;1.48;0.95;;;;;;;6.04;87.12;97851.44;4870525;29;20045;-70
2023/01/16 12:06:07;;;;;;;1.50;1.33;;;;;;;6.08;87.89;97844.25;4873620;29;20941;-72
2023/01/16 12:09:06;;;;;;;7.50;6.55;;;;;;;6.15;87.84;97842.09;4869073;29;20164;-72
2023/01/16 12:11:39;;;;;;;2.92;1.45;;;;;;;6.17;87.76;97833.22;4866486;29;20156;-72
2023/01/16 12:14:45;;;;;;;4.20;1.83;;;;;;;6.18;87.61;97824.44;4869304;29;20121;-72
2023/01/16 12:17:31;;;;;;;1.73;0.70;;;;;;;6.15;86.53;97810.72;4859214;29;20050;-72
2023/01/16 12:20:54;;;;;;;2.97;2.20;;;;;;;6.12;86.71;97808.28;4864363;29;20483;-72
2023/01/16 12:24:28;;;;;;;1.85;1.65;;;;;;;6.05;86.93;97802.59;4855220;29;20038;-72
2023/01/16 12:27:15;;;;;;;1.92;0.80;;;;;;;5.99;86.66;97792.47;4867064;29;20160;-72
2023/01/16 12:30:38;;;;;;;1.42;1.00;;;;;;;6.00;86.40;97792.38;4870649;29;20057;-71
2023/01/16 12:33:26;;;;;;;3.28;2.65;;;;;;;5.98;87.41;97793.38;4872885;29;20138;-72
2023/01/16 12:36:15;;;;;;;2.42;1.33;;;;;;;5.97;87.32;97789.09;4867423;29;20109;-72
2023/01/16 12:39:40;;;;;;;1.38;0.60;;;;;;;5.94;87.11;97765.75;4864062;29;20122;-72
2023/01/16 12:43:37;;;;;;;1.83;0.52;;;;;;;5.86;86.84;97761.81;4867619;29;20080;-72
2023/01/16 12:45:52;;;;;;;3.70;1.63;;;;;;;5.83;87.17;97759.41;4863055;29;20057;-72
2023/01/16 12:48:41;;;;;;;1.10;0.80;;;;;;;5.83;87.12;97751.56;4862737;29;20136;-72
2023/01/16 12:51:20;;;;;;;2.20;1.00;;;;;;;5.83;87.42;97748.09;4871665;29;20061;-73
2023/01/16 12:54:35;;;;;;;2.40;1.80;;;;;;;5.83;86.61;97745.47;4872143;29;20046;-72
2023/01/16 12:57:55;;;;;;;2.22;1.08;;;;;;;5.78;86.93;97737.91;4864758;29;20106;-72
2023/01/16 13:00:36;;;;;;;3.67;2.70;;;;;;;5.73;87.67;97738.19;4853916;29;20093;-72
2023/01/16 13:03:23;;;;;;;3.10;1.20;;;;;;;5.74;87.98;97736.44;4854368;29;20050;-72
2023/01/16 13:05:55;;;;;;;3.47;1.10;;;;;;;5.68;88.29;97728.94;4858886;29;20072;-72
2023/01/16 13:08:35;;;;;;;2.97;1.30;;;;;;;5.61;88.70;97728.47;4868388;29;20191;-72
2023/01/16 13:14:34;;;;;;;2.17;1.35;;;;;;;5.46;89.90;97719.75;4863375;29;20073;-71
2023/01/16 13:17:12;;;;;;;3.10;1.70;;;;;;;5.41;90.47;97722.66;4872977;29;20133;-72
2023/01/16 13:20:00;;;;;;;2.20;1.20;;;;;;;5.33;91.00;97711.81;4890266;29;20049;-71